Webb, Iowa
Current Conditions -  °F | °C
As of 6:53 PM on Saturday 20 Dec 2014 (Local Time) from KSPW Reporting Station
Overcast Overcast  
Wind Chill: 23°   Ceiling: 800
Heat Index: 32°   Visibility: 10mi
Dew Point: 28°   Wind: 13mph
Humidity: 85%   Direction: 160°SSE
Pressure: 30.06"   Gusts: NA
Location:  42.95°N, 95.01°W
Report Text: KSPW 210053Z AUTO 16011KT 10SM OVC008 00/M02 A3006 RMK AO2 SLP194 T00001022 TSNO
Loading
Personal Weather Stations






























Interactive Weather Map New forecast layout! Learn more

10-Day Weather Forecast

Advertisements
Track Severe Weather on mobile